sensor_id;sensor_type;location;lat;lon;timestamp;P1;durP1;ratioP1;P2;durP2;ratioP2
27847;SDS011;15212;48.830;8.730;2023-07-22T00:00:44;2.75;;;2.00;;
27847;SDS011;15212;48.830;8.730;2023-07-22T00:03:12;5.05;;;1.87;;
27847;SDS011;15212;48.830;8.730;2023-07-22T00:05:41;3.35;;;2.00;;
27847;SDS011;15212;48.830;8.730;2023-07-22T00:08:09;3.35;;;2.15;;
27847;SDS011;15212;48.830;8.730;2023-07-22T00:10:41;4.53;;;2.22;;
27847;SDS011;15212;48.830;8.730;2023-07-22T00:13:10;3.90;;;2.00;;
27847;SDS011;15212;48.830;8.730;2023-07-22T00:15:38;4.40;;;2.40;;
27847;SDS011;15212;48.830;8.730;2023-07-22T00:18:07;2.62;;;1.95;;
27847;SDS011;15212;48.830;8.730;2023-07-22T00:20:36;3.70;;;2.17;;
27847;SDS011;15212;48.830;8.730;2023-07-22T00:23:04;5.58;;;2.37;;
27847;SDS011;15212;48.830;8.730;2023-07-22T00:25:32;5.78;;;2.00;;
27847;SDS011;15212;48.830;8.730;2023-07-22T00:28:01;7.58;;;2.00;;
27847;SDS011;15212;48.830;8.730;2023-07-22T00:30:33;3.47;;;1.90;;
27847;SDS011;15212;48.830;8.730;2023-07-22T00:33:01;3.42;;;2.17;;
27847;SDS011;15212;48.830;8.730;2023-07-22T00:35:29;6.10;;;2.20;;
27847;SDS011;15212;48.830;8.730;2023-07-22T00:38:01;3.90;;;1.92;;
27847;SDS011;15212;48.830;8.730;2023-07-22T00:40:29;6.12;;;2.60;;
27847;SDS011;15212;48.830;8.730;2023-07-22T00:43:01;5.83;;;2.12;;
27847;SDS011;15212;48.830;8.730;2023-07-22T00:45:30;3.15;;;2.37;;
27847;SDS011;15212;48.830;8.730;2023-07-22T00:47:59;3.72;;;2.10;;
27847;SDS011;15212;48.830;8.730;2023-07-22T00:50:27;7.35;;;2.08;;
27847;SDS011;15212;48.830;8.730;2023-07-22T00:52:56;2.40;;;1.90;;
27847;SDS011;15212;48.830;8.730;2023-07-22T00:55:24;6.30;;;2.00;;
27847;SDS011;15212;48.830;8.730;2023-07-22T00:57:54;3.35;;;1.90;;
27847;SDS011;15212;48.830;8.730;2023-07-22T01:00:22;3.98;;;1.98;;
27847;SDS011;15212;48.830;8.730;2023-07-22T01:02:51;4.85;;;1.95;;
27847;SDS011;15212;48.830;8.730;2023-07-22T01:05:19;3.30;;;1.77;;
27847;SDS011;15212;48.830;8.730;2023-07-22T01:07:48;6.53;;;2.40;;
27847;SDS011;15212;48.830;8.730;2023-07-22T01:10:17;5.03;;;2.20;;
27847;SDS011;15212;48.830;8.730;2023-07-22T01:12:45;4.00;;;1.82;;
27847;SDS011;15212;48.830;8.730;2023-07-22T01:15:14;4.87;;;2.10;;
27847;SDS011;15212;48.830;8.730;2023-07-22T01:17:42;7.85;;;2.12;;
27847;SDS011;15212;48.830;8.730;2023-07-22T01:20:11;4.47;;;2.05;;
27847;SDS011;15212;48.830;8.730;2023-07-22T01:22:40;3.12;;;1.92;;
27847;SDS011;15212;48.830;8.730;2023-07-22T01:25:19;3.52;;;2.33;;
27847;SDS011;15212;48.830;8.730;2023-07-22T01:27:50;3.85;;;1.98;;
27847;SDS011;15212;48.830;8.730;2023-07-22T01:30:19;4.60;;;2.42;;
27847;SDS011;15212;48.830;8.730;2023-07-22T01:32:47;3.42;;;1.85;;
27847;SDS011;15212;48.830;8.730;2023-07-22T01:35:16;4.65;;;2.05;;
27847;SDS011;15212;48.830;8.730;2023-07-22T01:37:45;4.00;;;2.20;;
27847;SDS011;15212;48.830;8.730;2023-07-22T01:40:13;3.17;;;1.87;;
27847;SDS011;15212;48.830;8.730;2023-07-22T01:42:42;3.90;;;2.27;;
27847;SDS011;15212;48.830;8.730;2023-07-22T01:45:10;5.70;;;2.08;;
27847;SDS011;15212;48.830;8.730;2023-07-22T01:47:39;3.25;;;2.10;;
27847;SDS011;15212;48.830;8.730;2023-07-22T01:50:08;3.42;;;2.30;;
27847;SDS011;15212;48.830;8.730;2023-07-22T01:52:36;3.35;;;2.10;;
27847;SDS011;15212;48.830;8.730;2023-07-22T01:55:05;3.92;;;2.08;;
27847;SDS011;15212;48.830;8.730;2023-07-22T01:57:36;3.22;;;2.30;;
27847;SDS011;15212;48.830;8.730;2023-07-22T02:00:06;4.28;;;2.60;;
27847;SDS011;15212;48.830;8.730;2023-07-22T02:02:37;4.28;;;2.37;;
27847;SDS011;15212;48.830;8.730;2023-07-22T02:05:05;7.70;;;2.50;;
27847;SDS011;15212;48.830;8.730;2023-07-22T02:07:35;4.45;;;2.35;;
27847;SDS011;15212;48.830;8.730;2023-07-22T02:10:04;4.28;;;2.45;;
27847;SDS011;15212;48.830;8.730;2023-07-22T02:12:34;4.83;;;2.10;;
27847;SDS011;15212;48.830;8.730;2023-07-22T02:15:02;5.05;;;2.30;;
27847;SDS011;15212;48.830;8.730;2023-07-22T02:17:31;3.27;;;2.08;;
27847;SDS011;15212;48.830;8.730;2023-07-22T02:20:00;3.42;;;2.22;;
27847;SDS011;15212;48.830;8.730;2023-07-22T02:22:30;5.50;;;2.58;;
27847;SDS011;15212;48.830;8.730;2023-07-22T02:24:58;4.20;;;2.12;;
27847;SDS011;15212;48.830;8.730;2023-07-22T02:27:27;4.80;;;2.58;;
27847;SDS011;15212;48.830;8.730;2023-07-22T02:29:55;4.42;;;2.50;;
27847;SDS011;15212;48.830;8.730;2023-07-22T02:32:24;4.72;;;2.50;;
27847;SDS011;15212;48.830;8.730;2023-07-22T02:34:52;3.22;;;2.20;;
27847;SDS011;15212;48.830;8.730;2023-07-22T02:37:20;7.12;;;2.72;;
27847;SDS011;15212;48.830;8.730;2023-07-22T02:39:49;3.35;;;2.25;;
27847;SDS011;15212;48.830;8.730;2023-07-22T02:42:17;4.45;;;2.30;;
27847;SDS011;15212;48.830;8.730;2023-07-22T02:44:45;4.90;;;2.35;;
27847;SDS011;15212;48.830;8.730;2023-07-22T02:47:14;7.35;;;2.40;;
27847;SDS011;15212;48.830;8.730;2023-07-22T02:49:42;4.65;;;2.10;;
27847;SDS011;15212;48.830;8.730;2023-07-22T02:52:11;4.53;;;2.30;;
27847;SDS011;15212;48.830;8.730;2023-07-22T02:54:39;5.08;;;2.50;;
27847;SDS011;15212;48.830;8.730;2023-07-22T02:57:08;3.92;;;2.40;;
27847;SDS011;15212;48.830;8.730;2023-07-22T02:59:36;3.25;;;2.33;;
27847;SDS011;15212;48.830;8.730;2023-07-22T03:02:05;3.70;;;2.60;;
27847;SDS011;15212;48.830;8.730;2023-07-22T03:04:33;3.35;;;2.35;;
27847;SDS011;15212;48.830;8.730;2023-07-22T03:07:02;2.90;;;2.33;;
27847;SDS011;15212;48.830;8.730;2023-07-22T03:09:32;5.08;;;2.50;;
27847;SDS011;15212;48.830;8.730;2023-07-22T03:12:00;4.60;;;2.90;;
27847;SDS011;15212;48.830;8.730;2023-07-22T03:14:29;4.05;;;2.33;;
27847;SDS011;15212;48.830;8.730;2023-07-22T03:17:01;3.50;;;2.30;;
27847;SDS011;15212;48.830;8.730;2023-07-22T03:19:33;4.35;;;2.50;;
27847;SDS011;15212;48.830;8.730;2023-07-22T03:22:01;5.28;;;2.60;;
27847;SDS011;15212;48.830;8.730;2023-07-22T03:24:31;5.50;;;2.45;;
27847;SDS011;15212;48.830;8.730;2023-07-22T03:26:59;3.27;;;2.27;;
27847;SDS011;15212;48.830;8.730;2023-07-22T03:29:27;4.85;;;2.60;;
27847;SDS011;15212;48.830;8.730;2023-07-22T03:31:56;4.65;;;2.33;;
27847;SDS011;15212;48.830;8.730;2023-07-22T03:34:29;6.75;;;2.47;;
27847;SDS011;15212;48.830;8.730;2023-07-22T03:36:58;7.53;;;2.60;;
27847;SDS011;15212;48.830;8.730;2023-07-22T03:39:27;4.62;;;2.00;;
27847;SDS011;15212;48.830;8.730;2023-07-22T03:41:55;4.20;;;2.37;;
27847;SDS011;15212;48.830;8.730;2023-07-22T03:44:23;4.08;;;2.20;;
27847;SDS011;15212;48.830;8.730;2023-07-22T03:46:53;4.15;;;2.30;;
27847;SDS011;15212;48.830;8.730;2023-07-22T03:49:22;3.60;;;2.40;;
27847;SDS011;15212;48.830;8.730;2023-07-22T03:51:51;3.90;;;2.40;;
27847;SDS011;15212;48.830;8.730;2023-07-22T03:54:19;5.85;;;2.62;;
27847;SDS011;15212;48.830;8.730;2023-07-22T03:56:47;3.45;;;2.33;;
27847;SDS011;15212;48.830;8.730;2023-07-22T03:59:16;6.37;;;2.10;;
27847;SDS011;15212;48.830;8.730;2023-07-22T04:01:44;3.42;;;2.17;;
27847;SDS011;15212;48.830;8.730;2023-07-22T04:04:13;6.65;;;2.37;;
27847;SDS011;15212;48.830;8.730;2023-07-22T04:06:42;4.15;;;2.20;;
27847;SDS011;15212;48.830;8.730;2023-07-22T04:09:10;7.08;;;2.40;;
27847;SDS011;15212;48.830;8.730;2023-07-22T04:11:38;4.83;;;2.30;;
27847;SDS011;15212;48.830;8.730;2023-07-22T04:14:07;4.35;;;2.30;;
27847;SDS011;15212;48.830;8.730;2023-07-22T04:16:35;4.37;;;2.70;;
27847;SDS011;15212;48.830;8.730;2023-07-22T04:19:03;3.55;;;2.22;;
27847;SDS011;15212;48.830;8.730;2023-07-22T04:21:32;3.90;;;2.40;;
27847;SDS011;15212;48.830;8.730;2023-07-22T04:24:00;4.05;;;2.30;;
27847;SDS011;15212;48.830;8.730;2023-07-22T04:26:29;4.35;;;2.12;;
27847;SDS011;15212;48.830;8.730;2023-07-22T04:28:59;3.77;;;2.17;;
27847;SDS011;15212;48.830;8.730;2023-07-22T04:31:27;6.17;;;2.55;;
27847;SDS011;15212;48.830;8.730;2023-07-22T04:33:57;3.33;;;2.10;;
27847;SDS011;15212;48.830;8.730;2023-07-22T04:36:25;3.72;;;2.30;;
27847;SDS011;15212;48.830;8.730;2023-07-22T04:38:54;3.92;;;2.40;;
27847;SDS011;15212;48.830;8.730;2023-07-22T04:41:22;5.35;;;2.42;;
27847;SDS011;15212;48.830;8.730;2023-07-22T04:43:51;3.98;;;2.25;;
27847;SDS011;15212;48.830;8.730;2023-07-22T04:46:19;3.90;;;2.55;;
27847;SDS011;15212;48.830;8.730;2023-07-22T04:48:49;3.72;;;2.33;;
27847;SDS011;15212;48.830;8.730;2023-07-22T04:51:17;4.70;;;2.20;;
27847;SDS011;15212;48.830;8.730;2023-07-22T04:53:46;4.12;;;2.37;;
27847;SDS011;15212;48.830;8.730;2023-07-22T04:56:14;4.87;;;2.55;;
27847;SDS011;15212;48.830;8.730;2023-07-22T04:58:42;2.92;;;2.15;;
27847;SDS011;15212;48.830;8.730;2023-07-22T05:01:11;3.00;;;2.10;;
27847;SDS011;15212;48.830;8.730;2023-07-22T05:03:39;3.98;;;2.02;;
27847;SDS011;15212;48.830;8.730;2023-07-22T05:06:08;4.70;;;2.20;;
27847;SDS011;15212;48.830;8.730;2023-07-22T05:08:37;4.55;;;2.50;;
27847;SDS011;15212;48.830;8.730;2023-07-22T05:11:06;3.50;;;1.98;;
27847;SDS011;15212;48.830;8.730;2023-07-22T05:13:35;4.15;;;2.10;;
27847;SDS011;15212;48.830;8.730;2023-07-22T05:16:03;4.05;;;2.22;;
27847;SDS011;15212;48.830;8.730;2023-07-22T05:18:32;5.12;;;2.10;;
27847;SDS011;15212;48.830;8.730;2023-07-22T05:21:00;3.02;;;2.02;;
27847;SDS011;15212;48.830;8.730;2023-07-22T05:23:28;4.08;;;2.05;;
27847;SDS011;15212;48.830;8.730;2023-07-22T05:25:57;4.55;;;2.00;;
27847;SDS011;15212;48.830;8.730;2023-07-22T05:28:25;2.83;;;2.02;;
27847;SDS011;15212;48.830;8.730;2023-07-22T05:30:55;3.60;;;2.20;;
27847;SDS011;15212;48.830;8.730;2023-07-22T05:33:23;2.45;;;1.65;;
27847;SDS011;15212;48.830;8.730;2023-07-22T05:35:52;4.72;;;1.82;;
27847;SDS011;15212;48.830;8.730;2023-07-22T05:38:20;2.58;;;1.70;;
27847;SDS011;15212;48.830;8.730;2023-07-22T05:40:49;4.08;;;1.70;;
27847;SDS011;15212;48.830;8.730;2023-07-22T05:43:20;3.25;;;1.80;;
27847;SDS011;15212;48.830;8.730;2023-07-22T05:45:49;3.27;;;1.90;;
27847;SDS011;15212;48.830;8.730;2023-07-22T05:48:17;3.58;;;1.87;;
27847;SDS011;15212;48.830;8.730;2023-07-22T05:50:47;3.12;;;2.00;;
27847;SDS011;15212;48.830;8.730;2023-07-22T05:53:15;4.60;;;2.10;;
27847;SDS011;15212;48.830;8.730;2023-07-22T05:55:44;2.77;;;2.02;;
27847;SDS011;15212;48.830;8.730;2023-07-22T05:58:15;2.72;;;1.85;;
27847;SDS011;15212;48.830;8.730;2023-07-22T06:00:45;3.37;;;1.82;;
27847;SDS011;15212;48.830;8.730;2023-07-22T06:03:13;3.40;;;1.82;;
27847;SDS011;15212;48.830;8.730;2023-07-22T06:05:42;3.75;;;2.08;;
27847;SDS011;15212;48.830;8.730;2023-07-22T06:08:10;3.00;;;1.87;;
27847;SDS011;15212;48.830;8.730;2023-07-22T06:10:42;3.90;;;1.47;;
27847;SDS011;15212;48.830;8.730;2023-07-22T06:13:11;5.30;;;1.62;;
27847;SDS011;15212;48.830;8.730;2023-07-22T06:15:39;4.28;;;1.65;;
27847;SDS011;15212;48.830;8.730;2023-07-22T06:18:07;3.35;;;1.60;;
27847;SDS011;15212;48.830;8.730;2023-07-22T06:20:36;3.45;;;1.70;;
27847;SDS011;15212;48.830;8.730;2023-07-22T06:23:04;3.40;;;1.70;;
27847;SDS011;15212;48.830;8.730;2023-07-22T06:25:33;2.90;;;1.40;;
27847;SDS011;15212;48.830;8.730;2023-07-22T06:28:01;1.82;;;1.40;;
27847;SDS011;15212;48.830;8.730;2023-07-22T06:30:30;5.17;;;1.52;;
27847;SDS011;15212;48.830;8.730;2023-07-22T06:32:58;2.22;;;1.60;;
27847;SDS011;15212;48.830;8.730;2023-07-22T06:35:26;2.75;;;1.57;;
27847;SDS011;15212;48.830;8.730;2023-07-22T06:37:55;2.55;;;1.52;;
27847;SDS011;15212;48.830;8.730;2023-07-22T06:40:24;1.72;;;1.30;;
27847;SDS011;15212;48.830;8.730;2023-07-22T06:42:52;2.42;;;1.47;;
27847;SDS011;15212;48.830;8.730;2023-07-22T06:45:21;1.67;;;1.45;;
27847;SDS011;15212;48.830;8.730;2023-07-22T06:47:49;2.12;;;1.30;;
27847;SDS011;15212;48.830;8.730;2023-07-22T06:50:17;1.87;;;1.20;;
27847;SDS011;15212;48.830;8.730;2023-07-22T06:52:46;2.00;;;1.30;;
27847;SDS011;15212;48.830;8.730;2023-07-22T06:55:15;3.52;;;1.32;;
27847;SDS011;15212;48.830;8.730;2023-07-22T06:57:43;1.92;;;1.40;;
27847;SDS011;15212;48.830;8.730;2023-07-22T07:00:12;3.98;;;1.30;;
27847;SDS011;15212;48.830;8.730;2023-07-22T07:02:41;2.70;;;1.30;;
27847;SDS011;15212;48.830;8.730;2023-07-22T07:05:09;2.12;;;1.30;;
27847;SDS011;15212;48.830;8.730;2023-07-22T07:07:38;1.82;;;1.20;;
27847;SDS011;15212;48.830;8.730;2023-07-22T07:10:07;1.62;;;1.20;;
27847;SDS011;15212;48.830;8.730;2023-07-22T07:12:36;2.00;;;1.10;;
27847;SDS011;15212;48.830;8.730;2023-07-22T07:15:05;3.05;;;1.02;;
27847;SDS011;15212;48.830;8.730;2023-07-22T07:17:34;2.50;;;1.10;;
27847;SDS011;15212;48.830;8.730;2023-07-22T07:20:03;2.05;;;1.30;;
27847;SDS011;15212;48.830;8.730;2023-07-22T07:22:32;2.55;;;1.27;;
27847;SDS011;15212;48.830;8.730;2023-07-22T07:25:00;2.50;;;1.40;;
27847;SDS011;15212;48.830;8.730;2023-07-22T07:27:29;2.10;;;1.10;;
27847;SDS011;15212;48.830;8.730;2023-07-22T07:29:57;4.25;;;1.32;;
27847;SDS011;15212;48.830;8.730;2023-07-22T07:32:26;1.52;;;1.22;;
27847;SDS011;15212;48.830;8.730;2023-07-22T07:34:54;1.62;;;1.10;;
27847;SDS011;15212;48.830;8.730;2023-07-22T07:37:22;1.47;;;1.20;;
27847;SDS011;15212;48.830;8.730;2023-07-22T07:39:51;1.60;;;1.15;;
27847;SDS011;15212;48.830;8.730;2023-07-22T07:42:21;1.90;;;1.20;;
27847;SDS011;15212;48.830;8.730;2023-07-22T07:44:49;2.42;;;1.30;;
27847;SDS011;15212;48.830;8.730;2023-07-22T07:47:18;2.72;;;1.40;;
27847;SDS011;15212;48.830;8.730;2023-07-22T07:49:46;2.15;;;1.37;;
27847;SDS011;15212;48.830;8.730;2023-07-22T07:52:15;2.02;;;1.20;;
27847;SDS011;15212;48.830;8.730;2023-07-22T07:54:43;1.55;;;1.10;;
27847;SDS011;15212;48.830;8.730;2023-07-22T07:57:11;2.40;;;1.27;;
27847;SDS011;15212;48.830;8.730;2023-07-22T07:59:40;2.70;;;1.45;;
27847;SDS011;15212;48.830;8.730;2023-07-22T08:02:08;3.05;;;1.30;;
27847;SDS011;15212;48.830;8.730;2023-07-22T08:04:37;2.72;;;1.40;;
27847;SDS011;15212;48.830;8.730;2023-07-22T08:07:05;2.20;;;1.30;;
27847;SDS011;15212;48.830;8.730;2023-07-22T08:09:34;1.75;;;1.20;;
27847;SDS011;15212;48.830;8.730;2023-07-22T08:12:03;3.02;;;1.30;;
27847;SDS011;15212;48.830;8.730;2023-07-22T08:14:31;3.40;;;1.17;;
27847;SDS011;15212;48.830;8.730;2023-07-22T08:17:00;2.45;;;1.20;;
27847;SDS011;15212;48.830;8.730;2023-07-22T08:19:29;3.15;;;1.30;;
27847;SDS011;15212;48.830;8.730;2023-07-22T08:21:57;1.67;;;1.12;;
27847;SDS011;15212;48.830;8.730;2023-07-22T08:24:26;2.20;;;1.30;;
27847;SDS011;15212;48.830;8.730;2023-07-22T08:26:54;3.85;;;1.42;;
27847;SDS011;15212;48.830;8.730;2023-07-22T08:29:23;3.17;;;1.50;;
27847;SDS011;15212;48.830;8.730;2023-07-22T08:31:51;2.80;;;1.40;;
27847;SDS011;15212;48.830;8.730;2023-07-22T08:34:20;2.70;;;1.27;;
27847;SDS011;15212;48.830;8.730;2023-07-22T08:36:48;4.40;;;1.20;;
27847;SDS011;15212;48.830;8.730;2023-07-22T08:39:17;2.72;;;1.50;;
27847;SDS011;15212;48.830;8.730;2023-07-22T08:41:48;4.35;;;1.60;;
27847;SDS011;15212;48.830;8.730;2023-07-22T08:44:19;2.05;;;1.45;;
27847;SDS011;15212;48.830;8.730;2023-07-22T08:46:48;2.27;;;1.20;;
27847;SDS011;15212;48.830;8.730;2023-07-22T08:49:20;2.33;;;1.35;;
27847;SDS011;15212;48.830;8.730;2023-07-22T08:51:49;2.52;;;1.37;;
27847;SDS011;15212;48.830;8.730;2023-07-22T08:54:18;3.15;;;1.30;;
27847;SDS011;15212;48.830;8.730;2023-07-22T08:56:48;1.47;;;1.20;;
27847;SDS011;15212;48.830;8.730;2023-07-22T08:59:17;3.47;;;1.32;;
27847;SDS011;15212;48.830;8.730;2023-07-22T09:01:47;1.80;;;1.10;;
27847;SDS011;15212;48.830;8.730;2023-07-22T09:04:17;1.90;;;1.27;;
27847;SDS011;15212;48.830;8.730;2023-07-22T09:06:46;2.33;;;1.40;;
27847;SDS011;15212;48.830;8.730;2023-07-22T09:09:15;7.67;;;1.40;;
27847;SDS011;15212;48.830;8.730;2023-07-22T09:11:44;1.70;;;1.20;;
27847;SDS011;15212;48.830;8.730;2023-07-22T09:14:14;1.75;;;1.20;;
27847;SDS011;15212;48.830;8.730;2023-07-22T09:16:45;2.92;;;1.42;;
27847;SDS011;15212;48.830;8.730;2023-07-22T09:19:14;3.08;;;1.25;;
27847;SDS011;15212;48.830;8.730;2023-07-22T09:21:43;2.05;;;1.22;;
27847;SDS011;15212;48.830;8.730;2023-07-22T09:24:25;1.80;;;1.22;;
27847;SDS011;15212;48.830;8.730;2023-07-22T09:26:57;2.98;;;1.32;;
27847;SDS011;15212;48.830;8.730;2023-07-22T09:29:38;2.40;;;1.30;;
27847;SDS011;15212;48.830;8.730;2023-07-22T09:32:05;3.12;;;1.40;;
27847;SDS011;15212;48.830;8.730;2023-07-22T09:34:34;2.72;;;1.12;;
27847;SDS011;15212;48.830;8.730;2023-07-22T09:37:02;2.25;;;1.35;;
27847;SDS011;15212;48.830;8.730;2023-07-22T09:39:31;2.67;;;1.50;;
27847;SDS011;15212;48.830;8.730;2023-07-22T09:41:59;2.90;;;1.30;;
27847;SDS011;15212;48.830;8.730;2023-07-22T09:44:30;2.75;;;1.40;;
27847;SDS011;15212;48.830;8.730;2023-07-22T09:47:06;3.27;;;1.25;;
27847;SDS011;15212;48.830;8.730;2023-07-22T09:49:39;2.10;;;1.50;;
27847;SDS011;15212;48.830;8.730;2023-07-22T09:52:09;1.50;;;1.15;;
27847;SDS011;15212;48.830;8.730;2023-07-22T09:54:46;3.27;;;1.40;;
27847;SDS011;15212;48.830;8.730;2023-07-22T09:57:16;2.17;;;1.25;;
27847;SDS011;15212;48.830;8.730;2023-07-22T09:59:46;3.05;;;1.20;;
27847;SDS011;15212;48.830;8.730;2023-07-22T10:02:18;3.15;;;1.50;;
27847;SDS011;15212;48.830;8.730;2023-07-22T10:04:48;2.77;;;1.52;;
27847;SDS011;15212;48.830;8.730;2023-07-22T10:07:19;2.08;;;1.30;;
27847;SDS011;15212;48.830;8.730;2023-07-22T10:09:48;2.00;;;1.40;;
27847;SDS011;15212;48.830;8.730;2023-07-22T10:12:19;2.35;;;1.45;;
27847;SDS011;15212;48.830;8.730;2023-07-22T10:14:48;3.10;;;1.47;;
27847;SDS011;15212;48.830;8.730;2023-07-22T10:17:18;3.00;;;1.60;;
27847;SDS011;15212;48.830;8.730;2023-07-22T10:19:47;4.85;;;1.50;;
27847;SDS011;15212;48.830;8.730;2023-07-22T10:22:17;1.82;;;1.15;;
27847;SDS011;15212;48.830;8.730;2023-07-22T10:24:46;4.05;;;1.40;;
27847;SDS011;15212;48.830;8.730;2023-07-22T10:27:15;2.60;;;1.40;;
27847;SDS011;15212;48.830;8.730;2023-07-22T10:29:45;2.47;;;1.32;;
27847;SDS011;15212;48.830;8.730;2023-07-22T10:32:14;3.00;;;1.40;;
27847;SDS011;15212;48.830;8.730;2023-07-22T10:34:43;3.10;;;1.70;;
27847;SDS011;15212;48.830;8.730;2023-07-22T10:37:11;3.27;;;1.80;;
27847;SDS011;15212;48.830;8.730;2023-07-22T10:39:39;2.20;;;1.45;;
27847;SDS011;15212;48.830;8.730;2023-07-22T10:42:08;2.50;;;1.60;;
27847;SDS011;15212;48.830;8.730;2023-07-22T10:44:37;2.17;;;1.50;;
27847;SDS011;15212;48.830;8.730;2023-07-22T10:47:07;5.33;;;1.82;;
27847;SDS011;15212;48.830;8.730;2023-07-22T10:49:43;3.55;;;1.92;;
27847;SDS011;15212;48.830;8.730;2023-07-22T10:52:15;2.87;;;1.77;;
27847;SDS011;15212;48.830;8.730;2023-07-22T10:55:13;2.72;;;1.40;;
27847;SDS011;15212;48.830;8.730;2023-07-22T10:57:48;2.47;;;1.55;;
27847;SDS011;15212;48.830;8.730;2023-07-22T11:00:19;3.77;;;1.72;;
27847;SDS011;15212;48.830;8.730;2023-07-22T11:06:03;1.77;;;1.37;;
27847;SDS011;15212;48.830;8.730;2023-07-22T11:08:38;2.08;;;1.45;;
27847;SDS011;15212;48.830;8.730;2023-07-22T11:11:07;7.08;;;1.82;;
27847;SDS011;15212;48.830;8.730;2023-07-22T11:13:39;2.95;;;1.30;;
27847;SDS011;15212;48.830;8.730;2023-07-22T11:16:11;2.42;;;1.57;;
27847;SDS011;15212;48.830;8.730;2023-07-22T11:18:40;3.90;;;1.60;;
27847;SDS011;15212;48.830;8.730;2023-07-22T11:21:09;3.65;;;1.57;;
27847;SDS011;15212;48.830;8.730;2023-07-22T11:23:39;3.83;;;1.60;;
27847;SDS011;15212;48.830;8.730;2023-07-22T11:26:07;2.77;;;1.75;;
27847;SDS011;15212;48.830;8.730;2023-07-22T11:28:36;4.05;;;1.57;;
27847;SDS011;15212;48.830;8.730;2023-07-22T11:31:04;3.92;;;1.80;;
27847;SDS011;15212;48.830;8.730;2023-07-22T11:33:39;3.22;;;1.60;;
27847;SDS011;15212;48.830;8.730;2023-07-22T11:36:10;2.05;;;1.30;;
27847;SDS011;15212;48.830;8.730;2023-07-22T11:38:39;5.70;;;1.80;;
27847;SDS011;15212;48.830;8.730;2023-07-22T11:41:07;2.77;;;1.50;;
27847;SDS011;15212;48.830;8.730;2023-07-22T11:43:36;2.55;;;1.57;;
27847;SDS011;15212;48.830;8.730;2023-07-22T11:46:05;4.28;;;1.75;;
27847;SDS011;15212;48.830;8.730;2023-07-22T11:48:34;2.92;;;1.80;;
27847;SDS011;15212;48.830;8.730;2023-07-22T11:51:03;2.60;;;1.80;;
27847;SDS011;15212;48.830;8.730;2023-07-22T11:53:31;3.37;;;1.70;;
27847;SDS011;15212;48.830;8.730;2023-07-22T11:56:00;2.87;;;1.70;;
27847;SDS011;15212;48.830;8.730;2023-07-22T11:58:30;3.92;;;1.50;;
27847;SDS011;15212;48.830;8.730;2023-07-22T12:01:05;3.62;;;1.70;;
27847;SDS011;15212;48.830;8.730;2023-07-22T12:03:36;2.80;;;1.77;;
27847;SDS011;15212;48.830;8.730;2023-07-22T12:06:06;3.30;;;1.70;;
27847;SDS011;15212;48.830;8.730;2023-07-22T12:08:35;2.85;;;1.82;;
27847;SDS011;15212;48.830;8.730;2023-07-22T12:11:06;3.20;;;1.55;;
27847;SDS011;15212;48.830;8.730;2023-07-22T12:13:37;2.33;;;1.90;;
27847;SDS011;15212;48.830;8.730;2023-07-22T12:16:06;2.92;;;1.72;;
27847;SDS011;15212;48.830;8.730;2023-07-22T12:21:14;3.25;;;1.77;;
27847;SDS011;15212;48.830;8.730;2023-07-22T12:23:43;2.70;;;1.50;;
27847;SDS011;15212;48.830;8.730;2023-07-22T12:26:13;2.98;;;1.90;;
27847;SDS011;15212;48.830;8.730;2023-07-22T12:28:41;3.08;;;1.80;;
27847;SDS011;15212;48.830;8.730;2023-07-22T12:31:10;3.10;;;1.80;;
27847;SDS011;15212;48.830;8.730;2023-07-22T12:33:38;3.20;;;1.65;;
27847;SDS011;15212;48.830;8.730;2023-07-22T12:36:06;4.53;;;1.82;;
27847;SDS011;15212;48.830;8.730;2023-07-22T12:38:35;4.83;;;2.30;;
27847;SDS011;15212;48.830;8.730;2023-07-22T12:41:03;3.15;;;2.00;;
27847;SDS011;15212;48.830;8.730;2023-07-22T12:43:32;3.47;;;1.90;;
27847;SDS011;15212;48.830;8.730;2023-07-22T12:46:00;5.15;;;1.80;;
27847;SDS011;15212;48.830;8.730;2023-07-22T12:48:28;3.83;;;2.40;;
27847;SDS011;15212;48.830;8.730;2023-07-22T12:50:57;3.37;;;1.77;;
27847;SDS011;15212;48.830;8.730;2023-07-22T12:53:26;3.50;;;1.62;;
27847;SDS011;15212;48.830;8.730;2023-07-22T12:55:55;3.47;;;1.60;;
27847;SDS011;15212;48.830;8.730;2023-07-22T12:58:23;3.62;;;1.85;;
27847;SDS011;15212;48.830;8.730;2023-07-22T13:00:52;2.75;;;1.55;;
27847;SDS011;15212;48.830;8.730;2023-07-22T13:03:20;2.55;;;1.60;;
27847;SDS011;15212;48.830;8.730;2023-07-22T13:05:48;7.25;;;1.98;;
27847;SDS011;15212;48.830;8.730;2023-07-22T13:08:17;3.45;;;1.90;;
27847;SDS011;15212;48.830;8.730;2023-07-22T13:10:45;2.72;;;1.80;;
27847;SDS011;15212;48.830;8.730;2023-07-22T13:13:14;3.33;;;1.98;;
27847;SDS011;15212;48.830;8.730;2023-07-22T13:15:42;2.20;;;1.55;;
27847;SDS011;15212;48.830;8.730;2023-07-22T13:18:11;3.40;;;1.80;;
27847;SDS011;15212;48.830;8.730;2023-07-22T13:20:39;6.35;;;2.22;;
27847;SDS011;15212;48.830;8.730;2023-07-22T13:23:07;4.25;;;1.92;;
27847;SDS011;15212;48.830;8.730;2023-07-22T13:25:36;3.50;;;2.10;;
27847;SDS011;15212;48.830;8.730;2023-07-22T13:28:05;3.37;;;2.25;;
27847;SDS011;15212;48.830;8.730;2023-07-22T13:30:33;4.08;;;2.55;;
27847;SDS011;15212;48.830;8.730;2023-07-22T13:33:01;3.67;;;2.30;;
27847;SDS011;15212;48.830;8.730;2023-07-22T13:35:30;3.20;;;1.80;;
27847;SDS011;15212;48.830;8.730;2023-07-22T13:37:58;3.62;;;1.95;;
27847;SDS011;15212;48.830;8.730;2023-07-22T13:40:27;4.37;;;2.08;;
27847;SDS011;15212;48.830;8.730;2023-07-22T13:42:56;4.87;;;2.10;;
27847;SDS011;15212;48.830;8.730;2023-07-22T13:45:25;3.87;;;2.00;;
27847;SDS011;15212;48.830;8.730;2023-07-22T13:47:54;4.08;;;2.12;;
27847;SDS011;15212;48.830;8.730;2023-07-22T13:50:22;4.22;;;2.40;;
27847;SDS011;15212;48.830;8.730;2023-07-22T13:52:50;3.98;;;2.20;;
27847;SDS011;15212;48.830;8.730;2023-07-22T13:55:19;3.75;;;2.10;;
27847;SDS011;15212;48.830;8.730;2023-07-22T13:57:47;5.33;;;1.95;;
27847;SDS011;15212;48.830;8.730;2023-07-22T14:00:16;4.42;;;2.27;;
27847;SDS011;15212;48.830;8.730;2023-07-22T14:02:44;3.47;;;2.05;;
27847;SDS011;15212;48.830;8.730;2023-07-22T14:05:12;3.27;;;2.00;;
27847;SDS011;15212;48.830;8.730;2023-07-22T14:07:41;3.27;;;2.02;;
27847;SDS011;15212;48.830;8.730;2023-07-22T14:10:09;4.37;;;2.30;;
27847;SDS011;15212;48.830;8.730;2023-07-22T14:12:38;4.70;;;2.12;;
27847;SDS011;15212;48.830;8.730;2023-07-22T14:15:06;5.70;;;2.12;;
27847;SDS011;15212;48.830;8.730;2023-07-22T14:17:36;4.50;;;2.17;;
27847;SDS011;15212;48.830;8.730;2023-07-22T14:20:04;4.25;;;2.30;;
27847;SDS011;15212;48.830;8.730;2023-07-22T14:22:33;3.42;;;2.20;;
27847;SDS011;15212;48.830;8.730;2023-07-22T14:25:02;4.00;;;2.08;;
27847;SDS011;15212;48.830;8.730;2023-07-22T14:27:31;4.60;;;2.35;;
27847;SDS011;15212;48.830;8.730;2023-07-22T14:30:01;3.85;;;2.15;;
27847;SDS011;15212;48.830;8.730;2023-07-22T14:32:31;4.20;;;2.67;;
27847;SDS011;15212;48.830;8.730;2023-07-22T14:34:59;3.70;;;2.17;;
27847;SDS011;15212;48.830;8.730;2023-07-22T14:37:30;3.50;;;2.05;;
27847;SDS011;15212;48.830;8.730;2023-07-22T14:39:58;3.35;;;2.08;;
27847;SDS011;15212;48.830;8.730;2023-07-22T14:42:27;5.08;;;2.27;;
27847;SDS011;15212;48.830;8.730;2023-07-22T14:44:55;3.67;;;2.20;;
27847;SDS011;15212;48.830;8.730;2023-07-22T14:47:24;3.92;;;2.37;;
27847;SDS011;15212;48.830;8.730;2023-07-22T14:49:52;3.72;;;2.27;;
27847;SDS011;15212;48.830;8.730;2023-07-22T14:52:21;3.98;;;2.22;;
27847;SDS011;15212;48.830;8.730;2023-07-22T14:54:49;3.50;;;2.10;;
27847;SDS011;15212;48.830;8.730;2023-07-22T14:57:18;5.90;;;2.20;;
27847;SDS011;15212;48.830;8.730;2023-07-22T14:59:46;3.00;;;2.00;;
27847;SDS011;15212;48.830;8.730;2023-07-22T15:02:14;3.20;;;2.10;;
27847;SDS011;15212;48.830;8.730;2023-07-22T15:04:43;3.33;;;2.20;;